La rose des vents
Donnes mto: Semaine 29/05/17 - 04/06/17 (S 22)
Date Horaire Temp. E. Hum. E. P.atmo. Pluie Vent 1mn Direction Ensoleilleme Ev.Tr. Solaire P. de rose Temp au vent Rafales
29/05/2017 00:00 20,6 C 57 % 1019,1 hPa 0,0 l/m 0,0 km/h (0 Bft) N 0,00 h 0,051 mm 0 W/m 11,7 C 20,6 C 0,1 km/h (0 Bft)
29/05/2017 01:00 20,4 C 58 % 1018,6 hPa 0,0 l/m 0,0 km/h (0 Bft) N 0,00 h 0,051 mm 0 W/m 12,0 C 20,4 C 0,2 km/h (0 Bft)
29/05/2017 02:00 20,2 C 59 % 1018,2 hPa 0,0 l/m 0,0 km/h (0 Bft) N 0,00 h 0,051 mm 0 W/m 12,0 C 20,2 C 0,1 km/h (0 Bft)
29/05/2017 03:00 20,1 C 61 % 1017,7 hPa 0,0 l/m 0,0 km/h (0 Bft) N 0,00 h 0,051 mm 0 W/m 12,3 C 20,1 C 0,4 km/h (0 Bft)
29/05/2017 04:00 20,0 C 61 % 1017,6 hPa 0,0 l/m 0,0 km/h (0 Bft) N 0,00 h 0,025 mm 0 W/m 12,3 C 20,0 C 0,1 km/h (0 Bft)
29/05/2017 05:00 18,8 C 66 % 1017,6 hPa 0,0 l/m 0,0 km/h (0 Bft) N 0,00 h 0,025 mm 6 W/m 12,2 C 18,8 C 0,0 km/h (0 Bft)
29/05/2017 06:00 18,1 C 69 % 1017,7 hPa 0,0 l/m 0,0 km/h (0 Bft) N 0,03 h 0,000 mm 19 W/m 12,3 C 18,1 C 0,0 km/h (0 Bft)
29/05/2017 07:00 18,8 C 70 % 1017,6 hPa 0,0 l/m 0,0 km/h (0 Bft) N 0,00 h 0,025 mm 42 W/m 13,2 C 18,8 C 0,1 km/h (0 Bft)
29/05/2017 08:00 20,7 C 67 % 1017,5 hPa 0,0 l/m 0,0 km/h (0 Bft) N 0,63 h 0,025 mm 271 W/m 14,3 C 20,7 C 0,0 km/h (0 Bft)
29/05/2017 09:00 24,7 C 56 % 1017,4 hPa 0,0 l/m 0,3 km/h (0 Bft) E-SE 1,00 h 0,152 mm 528 W/m 15,2 C 24,7 C 1,7 km/h (1 Bft)
29/05/2017 10:00 27,7 C 48 % 1017,1 hPa 0,0 l/m 0,7 km/h (0 Bft) E-SE 1,00 h 0,330 mm 677 W/m 15,8 C 27,7 C 2,3 km/h (1 Bft)
29/05/2017 11:00 28,6 C 46 % 1017,1 hPa 0,0 l/m 3,9 km/h (1 Bft) E 1,00 h 0,457 mm 792 W/m 15,7 C 28,6 C 8,4 km/h (2 Bft)
29/05/2017 12:00 29,0 C 42 % 1017,5 hPa 0,0 l/m 3,5 km/h (1 Bft) E 1,00 h 0,559 mm 878 W/m 14,6 C 29,0 C 8,2 km/h (2 Bft)
29/05/2017 13:00 30,2 C 35 % 1017,6 hPa 0,0 l/m 3,8 km/h (1 Bft) S 1,00 h 0,610 mm 894 W/m 13,1 C 30,2 C 7,8 km/h (2 Bft)
29/05/2017 14:00 30,3 C 34 % 1017,2 hPa 0,0 l/m 4,3 km/h (1 Bft) S 1,00 h 0,635 mm 866 W/m 12,5 C 30,3 C 8,8 km/h (2 Bft)
29/05/2017 15:00 30,5 C 35 % 1016,9 hPa 0,0 l/m 2,1 km/h (1 Bft) S-SO 1,00 h 0,635 mm 784 W/m 13,3 C 30,5 C 6,0 km/h (2 Bft)
29/05/2017 16:00 30,3 C 37 % 1016,7 hPa 0,0 l/m 0,9 km/h (0 Bft) E 1,00 h 0,559 mm 664 W/m 13,8 C 30,3 C 4,2 km/h (1 Bft)
29/05/2017 17:00 29,4 C 35 % 1016,3 hPa 0,0 l/m 1,3 km/h (1 Bft) S-SE 1,00 h 0,457 mm 512 W/m 12,4 C 29,4 C 4,6 km/h (1 Bft)
29/05/2017 18:00 28,3 C 38 % 1016,1 hPa 0,0 l/m 0,9 km/h (0 Bft) S-SE 1,00 h 0,356 mm 341 W/m 12,7 C 28,3 C 2,8 km/h (1 Bft)
29/05/2017 19:00 26,1 C 47 % 1016,0 hPa 0,0 l/m 0,0 km/h (0 Bft) SE 0,75 h 0,254 mm 151 W/m 14,0 C 26,1 C 0,7 km/h (0 Bft)
29/05/2017 20:00 23,9 C 58 % 1015,9 hPa 0,0 l/m 0,0 km/h (0 Bft) N 0,00 h 0,102 mm 15 W/m 15,0 C 23,9 C 0,0 km/h (0 Bft)
29/05/2017 21:00 21,5 C 65 % 1016,0 hPa 0,0 l/m 0,0 km/h (0 Bft) N 0,00 h 0,025 mm 0 W/m 14,7 C 21,5 C 0,0 km/h (0 Bft)
29/05/2017 22:00 20,0 C 66 % 1016,3 hPa 0,0 l/m 0,0 km/h (0 Bft) N 0,00 h 0,000 mm 0 W/m 13,4 C 20,0 C 0,0 km/h (0 Bft)
29/05/2017 23:00 19,8 C 62 % 1016,5 hPa 0,0 l/m 0,0 km/h (0 Bft) N 0,00 h 0,025 mm 0 W/m 12,2 C 19,8 C 0,1 km/h (0 Bft)
30/05/2017 00:00 19,8 C 58 % 1016,2 hPa 0,0 l/m 0,0 km/h (0 Bft) N 0,00 h 0,025 mm 0 W/m 11,4 C 19,8 C 0,0 km/h (0 Bft)
30/05/2017 01:00 19,7 C 55 % 1015,9 hPa 0,0 l/m 0,0 km/h (0 Bft) N 0,00 h 0,051 mm 0 W/m 10,5 C 19,7 C 0,0 km/h (0 Bft)
30/05/2017 02:00 19,6 C 54 % 1015,8 hPa 0,0 l/m 0,0 km/h (0 Bft) N 0,00 h 0,051 mm 0 W/m 10,0 C 19,6 C 0,1 km/h (0 Bft)
30/05/2017 03:00 19,2 C 54 % 1015,8 hPa 0,0 l/m 0,0 km/h (0 Bft) N 0,00 h 0,051 mm 0 W/m 9,7 C 19,2 C 0,0 km/h (0 Bft)
30/05/2017 04:00 18,8 C 57 % 1015,7 hPa 0,0 l/m 0,0 km/h (0 Bft) N 0,00 h 0,051 mm 0 W/m 9,9 C 18,8 C 0,0 km/h (0 Bft)
30/05/2017 05:00 18,2 C 59 % 1015,9 hPa 0,0 l/m 0,0 km/h (0 Bft) N 0,00 h 0,051 mm 5 W/m 10,2 C 18,2 C 0,0 km/h (0 Bft)
30/05/2017 06:00 17,8 C 64 % 1016,1 hPa 0,0 l/m 0,1 km/h (0 Bft) E-SE 0,02 h 0,000 mm 17 W/m 10,8 C 17,8 C 0,4 km/h (0 Bft)
30/05/2017 07:00 18,6 C 66 % 1016,2 hPa 0,0 l/m 0,1 km/h (0 Bft) E-SE 0,00 h 0,025 mm 32 W/m 12,2 C 18,6 C 0,2 km/h (0 Bft)
30/05/2017 08:00 20,5 C 61 % 1016,4 hPa 0,0 l/m 0,1 km/h (0 Bft) E-SE 0,62 h 0,025 mm 286 W/m 12,6 C 20,5 C 0,5 km/h (0 Bft)
30/05/2017 09:00 24,0 C 50 % 1016,7 hPa 0,0 l/m 0,3 km/h (0 Bft) E-SE 1,00 h 0,178 mm 554 W/m 12,9 C 24,0 C 1,7 km/h (1 Bft)
30/05/2017 10:00 25,6 C 60 % 1016,8 hPa 0,0 l/m 5,3 km/h (1 Bft) E 1,00 h 0,356 mm 698 W/m 17,1 C 25,6 C 9,5 km/h (2 Bft)
30/05/2017 11:00 25,3 C 68 % 1017,1 hPa 0,0 l/m 5,3 km/h (1 Bft) E 1,00 h 0,483 mm 812 W/m 18,9 C 25,3 C 9,9 km/h (2 Bft)
30/05/2017 12:00 25,9 C 66 % 1017,1 hPa 0,0 l/m 3,8 km/h (1 Bft) E 1,00 h 0,533 mm 884 W/m 19,0 C 25,9 C 8,2 km/h (2 Bft)
30/05/2017 13:00 26,4 C 66 % 1017,2 hPa 0,0 l/m 3,6 km/h (1 Bft) E 1,00 h 0,584 mm 909 W/m 19,5 C 26,4 C 8,2 km/h (2 Bft)
30/05/2017 14:00 26,2 C 68 % 1017,1 hPa 0,0 l/m 5,1 km/h (1 Bft) E 1,00 h 0,584 mm 871 W/m 19,8 C 26,2 C 10,6 km/h (2 Bft)
30/05/2017 15:00 25,2 C 69 % 1017,2 hPa 0,0 l/m 2,9 km/h (1 Bft) E 0,83 h 0,559 mm 584 W/m 19,2 C 25,2 C 6,9 km/h (2 Bft)
30/05/2017 16:00 26,1 C 65 % 1017,2 hPa 0,0 l/m 1,6 km/h (1 Bft) E 1,00 h 0,381 mm 698 W/m 19,1 C 26,1 C 4,9 km/h (1 Bft)
30/05/2017 17:00 25,9 C 65 % 1017,0 hPa 0,0 l/m 2,4 km/h (1 Bft) E 1,00 h 0,457 mm 514 W/m 18,7 C 25,9 C 5,5 km/h (1 Bft)
30/05/2017 18:00 25,3 C 69 % 1016,7 hPa 0,0 l/m 1,8 km/h (1 Bft) E 1,00 h 0,330 mm 330 W/m 19,1 C 25,3 C 4,5 km/h (1 Bft)
30/05/2017 19:00 24,0 C 72 % 1016,9 hPa 0,0 l/m 0,1 km/h (0 Bft) E 0,67 h 0,229 mm 133 W/m 18,7 C 24,0 C 0,8 km/h (0 Bft)
30/05/2017 20:00 22,3 C 78 % 1017,2 hPa 0,0 l/m 0,0 km/h (0 Bft) N 0,00 h 0,076 mm 23 W/m 18,2 C 22,3 C 0,0 km/h (0 Bft)
30/05/2017 21:00 21,0 C 86 % 1017,5 hPa 0,0 l/m 0,0 km/h (0 Bft) N 0,00 h 0,025 mm 0 W/m 18,6 C 21,0 C 0,0 km/h (0 Bft)
30/05/2017 22:00 20,2 C 89 % 1018,1 hPa 0,0 l/m 0,0 km/h (0 Bft) N 0,00 h 0,000 mm 0 W/m 18,3 C 20,2 C 0,0 km/h (0 Bft)
30/05/2017 23:00 19,2 C 90 % 1018,2 hPa 0,0 l/m 0,0 km/h (0 Bft) N 0,00 h 0,000 mm 0 W/m 17,5 C 19,2 C 0,0 km/h (0 Bft)
31/05/2017 00:00 18,4 C 91 % 1018,3 hPa 0,0 l/m 0,0 km/h (0 Bft) N 0,00 h 0,000 mm 0 W/m 17,0 C 18,4 C 0,0 km/h (0 Bft)
31/05/2017 01:00 18,0 C 90 % 1018,3 hPa 0,0 l/m 0,0 km/h (0 Bft) N 0,00 h 0,000 mm 0 W/m 16,2 C 18,0 C 0,0 km/h (0 Bft)
31/05/2017 02:00 17,8 C 84 % 1018,6 hPa 0,0 l/m 0,0 km/h (0 Bft) N 0,00 h 0,000 mm 0 W/m 15,0 C 17,8 C 0,0 km/h (0 Bft)
31/05/2017 03:00 17,2 C 85 % 1018,5 hPa 0,0 l/m 0,0 km/h (0 Bft) N 0,00 h 0,025 mm 0 W/m 14,6 C 17,2 C 0,0 km/h (0 Bft)
31/05/2017 04:00 17,1 C 85 % 1018,5 hPa 0,0 l/m 0,0 km/h (0 Bft) N 0,00 h 0,025 mm 0 W/m 14,5 C 17,1 C 0,1 km/h (0 Bft)
31/05/2017 05:00 17,1 C 85 % 1018,8 hPa 0,0 l/m 0,0 km/h (0 Bft) N 0,00 h 0,025 mm 6 W/m 14,5 C 17,1 C 0,0 km/h (0 Bft)
31/05/2017 06:00 16,6 C 82 % 1019,3 hPa 0,0 l/m 0,0 km/h (0 Bft) E 0,13 h 0,000 mm 32 W/m 13,6 C 16,6 C 0,2 km/h (0 Bft)
31/05/2017 07:00 17,4 C 80 % 1019,6 hPa 0,0 l/m 0,1 km/h (0 Bft) E 0,00 h 0,025 mm 78 W/m 14,0 C 17,4 C 0,3 km/h (0 Bft)
31/05/2017 08:00 19,7 C 75 % 1020,0 hPa 0,0 l/m 0,5 km/h (0 Bft) E 0,58 h 0,051 mm 272 W/m 15,0 C 19,7 C 1,7 km/h (1 Bft)
31/05/2017 09:00 22,8 C 74 % 1019,9 hPa 0,0 l/m 2,4 km/h (1 Bft) E 0,87 h 0,152 mm 484 W/m 17,9 C 22,8 C 6,1 km/h (2 Bft)
31/05/2017 10:00 23,6 C 76 % 1020,3 hPa 0,0 l/m 3,7 km/h (1 Bft) E 0,87 h 0,305 mm 464 W/m 19,1 C 23,6 C 7,2 km/h (2 Bft)
31/05/2017 11:00 24,2 C 74 % 1021,0 hPa 0,0 l/m 2,8 km/h (1 Bft) E 0,93 h 0,279 mm 608 W/m 19,3 C 24,2 C 6,7 km/h (2 Bft)
31/05/2017 12:00 25,3 C 69 % 1021,2 hPa 0,0 l/m 3,1 km/h (1 Bft) E-SE 0,98 h 0,381 mm 720 W/m 19,1 C 25,3 C 6,8 km/h (2 Bft)
31/05/2017 13:00 26,0 C 66 % 1021,2 hPa 0,0 l/m 4,0 km/h (1 Bft) E 1,00 h 0,457 mm 833 W/m 19,2 C 26,0 C 9,1 km/h (2 Bft)
31/05/2017 14:00 25,7 C 66 % 1021,0 hPa 0,0 l/m 2,9 km/h (1 Bft) E 0,77 h 0,533 mm 581 W/m 18,9 C 25,7 C 7,0 km/h (2 Bft)
31/05/2017 15:00 25,6 C 67 % 1020,7 hPa 0,0 l/m 0,8 km/h (0 Bft) E-SE 0,43 h 0,381 mm 451 W/m 18,9 C 25,6 C 2,9 km/h (1 Bft)
31/05/2017 16:00 24,1 C 70 % 1020,2 hPa 0,0 l/m 1,4 km/h (1 Bft) E-SE 0,00 h 0,279 mm 258 W/m 18,3 C 24,1 C 3,8 km/h (1 Bft)
31/05/2017 17:00 23,0 C 72 % 1020,2 hPa 0,0 l/m 0,6 km/h (0 Bft) S-SE 0,33 h 0,178 mm 254 W/m 17,7 C 23,0 C 2,1 km/h (1 Bft)
31/05/2017 18:00 23,7 C 73 % 1019,9 hPa 0,0 l/m 0,8 km/h (0 Bft) SE 0,67 h 0,152 mm 248 W/m 18,4 C 23,7 C 2,2 km/h (1 Bft)
31/05/2017 19:00 22,4 C 79 % 1019,9 hPa 0,0 l/m 0,1 km/h (0 Bft) SE 0,07 h 0,152 mm 102 W/m 18,6 C 22,4 C 1,1 km/h (0 Bft)
31/05/2017 20:00 21,2 C 85 % 1019,9 hPa 0,0 l/m 0,0 km/h (0 Bft) N 0,03 h 0,076 mm 23 W/m 18,5 C 21,2 C 0,0 km/h (0 Bft)
31/05/2017 21:00 20,2 C 88 % 1019,9 hPa 0,0 l/m 0,0 km/h (0 Bft) N 0,00 h 0,025 mm 6 W/m 18,1 C 20,2 C 0,0 km/h (0 Bft)
31/05/2017 22:00 19,3 C 90 % 1020,3 hPa 0,0 l/m 0,0 km/h (0 Bft) N 0,00 h 0,000 mm 0 W/m 17,5 C 19,3 C 0,0 km/h (0 Bft)
31/05/2017 23:00 18,5 C 92 % 1020,5 hPa 0,0 l/m 0,0 km/h (0 Bft) N 0,00 h 0,000 mm 0 W/m 17,2 C 18,5 C 0,0 km/h (0 Bft)
01/06/2017 00:00 17,9 C 93 % 1020,3 hPa 0,0 l/m 0,0 km/h (0 Bft) N 0,00 h 0,000 mm 0 W/m 16,7 C 17,9 C 0,0 km/h (0 Bft)
01/06/2017 01:00 17,5 C 94 % 1020,3 hPa 0,0 l/m 0,0 km/h (0 Bft) N 0,00 h 0,000 mm 0 W/m 16,4 C 17,5 C 0,1 km/h (0 Bft)
01/06/2017 02:00 17,4 C 94 % 1020,4 hPa 0,0 l/m 0,0 km/h (0 Bft) N 0,00 h 0,000 mm 0 W/m 16,5 C 17,4 C 0,0 km/h (0 Bft)
01/06/2017 03:00 17,3 C 91 % 1020,4 hPa 0,0 l/m 0,0 km/h (0 Bft) N 0,00 h 0,000 mm 0 W/m 15,8 C 17,3 C 0,0 km/h (0 Bft)
01/06/2017 04:00 16,9 C 87 % 1020,1 hPa 0,0 l/m 0,0 km/h (0 Bft) N 0,00 h 0,000 mm 0 W/m 14,8 C 16,9 C 0,2 km/h (0 Bft)
01/06/2017 05:00 16,7 C 85 % 1019,9 hPa 0,0 l/m 0,0 km/h (0 Bft) N 0,00 h 0,000 mm 5 W/m 14,3 C 16,7 C 0,0 km/h (0 Bft)
01/06/2017 06:00 16,6 C 86 % 1020,0 hPa 0,0 l/m 0,0 km/h (0 Bft) N 0,00 h 0,000 mm 23 W/m 14,3 C 16,6 C 0,0 km/h (0 Bft)
01/06/2017 07:00 17,3 C 83 % 1020,6 hPa 0,0 l/m 0,0 km/h (0 Bft) N 0,00 h 0,025 mm 45 W/m 14,4 C 17,3 C 0,0 km/h (0 Bft)
01/06/2017 08:00 19,2 C 84 % 1020,8 hPa 0,0 l/m 0,2 km/h (0 Bft) SE 0,43 h 0,025 mm 245 W/m 16,5 C 19,2 C 0,8 km/h (0 Bft)
01/06/2017 09:00 22,1 C 78 % 1020,5 hPa 0,0 l/m 1,3 km/h (1 Bft) SE 1,00 h 0,152 mm 554 W/m 18,1 C 22,1 C 3,4 km/h (1 Bft)
01/06/2017 10:00 24,3 C 68 % 1020,5 hPa 0,0 l/m 2,9 km/h (1 Bft) S-SO 1,00 h 0,330 mm 699 W/m 18,0 C 24,3 C 5,6 km/h (1 Bft)
01/06/2017 11:00 25,7 C 65 % 1020,7 hPa 0,0 l/m 4,9 km/h (1 Bft) E 1,00 h 0,432 mm 833 W/m 18,5 C 25,7 C 9,8 km/h (2 Bft)
01/06/2017 12:00 26,4 C 60 % 1020,9 hPa 0,0 l/m 4,1 km/h (1 Bft) E 1,00 h 0,559 mm 897 W/m 18,1 C 26,4 C 9,1 km/h (2 Bft)
01/06/2017 13:00 26,2 C 64 % 1020,8 hPa 0,0 l/m 4,6 km/h (1 Bft) E 0,87 h 0,584 mm 871 W/m 18,8 C 26,2 C 9,8 km/h (2 Bft)
01/06/2017 14:00 25,7 C 65 % 1020,5 hPa 0,0 l/m 3,6 km/h (1 Bft) E 0,43 h 0,559 mm 591 W/m 18,6 C 25,7 C 9,1 km/h (2 Bft)
01/06/2017 15:00 23,8 C 74 % 1020,8 hPa 0,0 l/m 1,8 km/h (1 Bft) E 0,08 h 0,381 mm 335 W/m 18,9 C 23,8 C 5,5 km/h (1 Bft)
01/06/2017 16:00 24,3 C 72 % 1020,5 hPa 0,0 l/m 0,6 km/h (0 Bft) E-SE 0,35 h 0,203 mm 394 W/m 18,9 C 24,3 C 2,2 km/h (1 Bft)
01/06/2017 17:00 23,9 C 73 % 1020,0 hPa 0,0 l/m 0,7 km/h (0 Bft) E-SE 0,00 h 0,254 mm 241 W/m 18,8 C 23,9 C 2,6 km/h (1 Bft)
01/06/2017 18:00 23,0 C 77 % 1019,6 hPa 0,0 l/m 0,4 km/h (0 Bft) E-SE 0,00 h 0,152 mm 171 W/m 18,7 C 23,0 C 1,9 km/h (1 Bft)
01/06/2017 19:00 22,2 C 82 % 1019,5 hPa 0,0 l/m 0,0 km/h (0 Bft) E-SE 0,00 h 0,102 mm 66 W/m 19,0 C 22,2 C 0,7 km/h (0 Bft)
01/06/2017 20:00 21,5 C 83 % 1019,4 hPa 0,0 l/m 0,0 km/h (0 Bft) N 0,00 h 0,051 mm 14 W/m 18,6 C 21,5 C 0,1 km/h (0 Bft)
01/06/2017 21:00 20,7 C 86 % 1019,4 hPa 0,0 l/m 0,0 km/h (0 Bft) N 0,00 h 0,000 mm 0 W/m 18,1 C 20,7 C 0,0 km/h (0 Bft)
01/06/2017 22:00 19,8 C 90 % 1019,7 hPa 0,0 l/m 0,0 km/h (0 Bft) N 0,00 h 0,000 mm 0 W/m 18,2 C 19,8 C 0,0 km/h (0 Bft)
01/06/2017 23:00 19,2 C 92 % 1019,7 hPa 0,0 l/m 0,0 km/h (0 Bft) N 0,00 h 0,000 mm 0 W/m 17,8 C 19,2 C 0,0 km/h (0 Bft)
02/06/2017 00:00 18,6 C 93 % 1019,5 hPa 0,0 l/m 0,0 km/h (0 Bft) N 0,00 h 0,000 mm 0 W/m 17,4 C 18,6 C 0,0 km/h (0 Bft)
02/06/2017 01:00 18,1 C 94 % 1019,3 hPa 0,0 l/m 0,0 km/h (0 Bft) N 0,00 h 0,000 mm 0 W/m 17,0 C 18,1 C 0,0 km/h (0 Bft)
02/06/2017 02:00 17,4 C 94 % 1019,2 hPa 0,0 l/m 0,0 km/h (0 Bft) N 0,00 h 0,000 mm 0 W/m 16,4 C 17,4 C 0,0 km/h (0 Bft)
02/06/2017 03:00 16,6 C 93 % 1019,0 hPa 0,0 l/m 0,0 km/h (0 Bft) N 0,00 h 0,000 mm 0 W/m 15,5 C 16,6 C 0,0 km/h (0 Bft)
02/06/2017 04:00 16,9 C 90 % 1018,9 hPa 0,0 l/m 0,0 km/h (0 Bft) N 0,00 h 0,000 mm 0 W/m 15,3 C 16,9 C 0,0 km/h (0 Bft)
02/06/2017 05:00 17,0 C 88 % 1019,0 hPa 0,0 l/m 0,0 km/h (0 Bft) N 0,00 h 0,000 mm 5 W/m 15,0 C 17,0 C 0,0 km/h (0 Bft)
02/06/2017 06:00 16,9 C 85 % 1019,0 hPa 0,0 l/m 0,0 km/h (0 Bft) N 0,02 h 0,000 mm 28 W/m 14,4 C 16,9 C 0,0 km/h (0 Bft)
02/06/2017 07:00 17,1 C 84 % 1019,4 hPa 0,0 l/m 0,0 km/h (0 Bft) N 0,00 h 0,025 mm 64 W/m 14,4 C 17,1 C 0,0 km/h (0 Bft)
02/06/2017 08:00 19,4 C 81 % 1019,3 hPa 0,0 l/m 0,0 km/h (0 Bft) E-SE 0,60 h 0,025 mm 274 W/m 16,1 C 19,4 C 0,5 km/h (0 Bft)
02/06/2017 09:00 22,5 C 73 % 1019,4 hPa 0,0 l/m 0,3 km/h (0 Bft) E-SE 1,00 h 0,152 mm 523 W/m 17,3 C 22,5 C 2,1 km/h (1 Bft)
02/06/2017 10:00 24,6 C 67 % 1019,4 hPa 0,0 l/m 1,5 km/h (1 Bft) E-SE 0,60 h 0,305 mm 547 W/m 18,1 C 24,6 C 5,1 km/h (1 Bft)
02/06/2017 11:00 24,9 C 71 % 1019,3 hPa 0,0 l/m 3,2 km/h (1 Bft) E 0,48 h 0,356 mm 555 W/m 19,2 C 24,9 C 8,3 km/h (2 Bft)
02/06/2017 12:00 23,5 C 76 % 1019,4 hPa 0,0 l/m 3,0 km/h (1 Bft) E 0,05 h 0,356 mm 366 W/m 19,2 C 23,5 C 7,7 km/h (2 Bft)
02/06/2017 13:00 24,1 C 75 % 1019,1 hPa 0,0 l/m 2,6 km/h (1 Bft) E 0,15 h 0,254 mm 425 W/m 19,3 C 24,1 C 7,4 km/h (2 Bft)
02/06/2017 14:00 23,1 C 77 % 1018,8 hPa 0,0 l/m 1,4 km/h (1 Bft) E 0,00 h 0,279 mm 272 W/m 18,9 C 23,1 C 5,1 km/h (1 Bft)
02/06/2017 15:00 23,9 C 75 % 1018,4 hPa 0,0 l/m 2,4 km/h (1 Bft) E 0,25 h 0,178 mm 475 W/m 19,2 C 23,9 C 5,9 km/h (2 Bft)
02/06/2017 16:00 23,0 C 76 % 1018,3 hPa 0,0 l/m 1,0 km/h (0 Bft) E 0,00 h 0,305 mm 113 W/m 18,6 C 23,0 C 2,7 km/h (1 Bft)
02/06/2017 17:00 21,6 C 81 % 1018,3 hPa 0,0 l/m 0,7 km/h (0 Bft) E-SE 0,00 h 0,076 mm 84 W/m 18,2 C 21,6 C 3,1 km/h (1 Bft)
02/06/2017 18:00 21,9 C 79 % 1017,8 hPa 0,0 l/m 1,3 km/h (1 Bft) S-SE 0,43 h 0,051 mm 210 W/m 18,0 C 21,9 C 2,8 km/h (1 Bft)
02/06/2017 19:00 22,9 C 68 % 1017,4 hPa 0,0 l/m 0,5 km/h (0 Bft) S-SE 0,70 h 0,127 mm 144 W/m 16,6 C 22,9 C 1,4 km/h (1 Bft)
02/06/2017 20:00 21,8 C 73 % 1017,2 hPa 0,0 l/m 0,0 km/h (0 Bft) N 0,00 h 0,102 mm 23 W/m 16,7 C 21,8 C 0,0 km/h (0 Bft)
02/06/2017 21:00 20,5 C 79 % 1017,0 hPa 0,0 l/m 0,0 km/h (0 Bft) N 0,00 h 0,025 mm 5 W/m 16,9 C 20,5 C 0,0 km/h (0 Bft)
02/06/2017 22:00 19,3 C 85 % 1017,2 hPa 0,0 l/m 0,0 km/h (0 Bft) N 0,00 h 0,000 mm 0 W/m 16,7 C 19,3 C 0,0 km/h (0 Bft)
02/06/2017 23:00 18,5 C 88 % 1017,1 hPa 0,0 l/m 0,0 km/h (0 Bft) N 0,00 h 0,025 mm 0 W/m 16,5 C 18,5 C 0,0 km/h (0 Bft)
03/06/2017 00:00 17,9 C 89 % 1016,8 hPa 0,0 l/m 0,0 km/h (0 Bft) N 0,00 h 0,000 mm 0 W/m 16,1 C 17,9 C 0,0 km/h (0 Bft)
03/06/2017 01:00 17,5 C 91 % 1016,8 hPa 0,0 l/m 0,0 km/h (0 Bft) N 0,00 h 0,000 mm 0 W/m 16,0 C 17,5 C 0,0 km/h (0 Bft)
03/06/2017 02:00 17,3 C 89 % 1016,6 hPa 0,0 l/m 0,0 km/h (0 Bft) N 0,00 h 0,000 mm 0 W/m 15,5 C 17,3 C 0,0 km/h (0 Bft)
03/06/2017 03:00 17,0 C 88 % 1016,5 hPa 0,0 l/m 0,0 km/h (0 Bft) N 0,00 h 0,000 mm 0 W/m 15,0 C 17,0 C 0,0 km/h (0 Bft)
03/06/2017 04:00 16,7 C 91 % 1016,7 hPa 0,0 l/m 0,0 km/h (0 Bft) N 0,00 h 0,000 mm 0 W/m 15,2 C 16,7 C 0,0 km/h (0 Bft)
03/06/2017 05:00 16,7 C 89 % 1016,6 hPa 0,0 l/m 0,0 km/h (0 Bft) N 0,00 h 0,000 mm 6 W/m 14,9 C 16,7 C 0,0 km/h (0 Bft)
03/06/2017 06:00 16,9 C 88 % 1016,6 hPa 0,0 l/m 0,0 km/h (0 Bft) N 0,03 h 0,000 mm 23 W/m 14,8 C 16,9 C 0,0 km/h (0 Bft)
03/06/2017 07:00 17,8 C 87 % 1016,7 hPa 0,0 l/m 0,0 km/h (0 Bft) N 0,00 h 0,025 mm 51 W/m 15,6 C 17,8 C 0,0 km/h (0 Bft)
03/06/2017 08:00 19,7 C 81 % 1016,8 hPa 0,0 l/m 0,3 km/h (0 Bft) S-SE 0,62 h 0,025 mm 279 W/m 16,3 C 19,7 C 1,3 km/h (1 Bft)
03/06/2017 09:00 22,8 C 69 % 1016,8 hPa 0,0 l/m 0,5 km/h (0 Bft) S-SE 1,00 h 0,152 mm 530 W/m 16,7 C 22,8 C 2,2 km/h (1 Bft)
03/06/2017 10:00 25,2 C 67 % 1016,7 hPa 0,0 l/m 1,3 km/h (1 Bft) SE 1,00 h 0,330 mm 688 W/m 18,5 C 25,2 C 4,6 km/h (1 Bft)
03/06/2017 11:00 25,7 C 67 % 1016,7 hPa 0,0 l/m 3,2 km/h (1 Bft) E 1,00 h 0,432 mm 812 W/m 19,2 C 25,7 C 8,2 km/h (2 Bft)
03/06/2017 12:00 26,3 C 67 % 1016,7 hPa 0,0 l/m 4,0 km/h (1 Bft) E 0,95 h 0,533 mm 901 W/m 19,6 C 26,3 C 9,4 km/h (2 Bft)
03/06/2017 13:00 25,8 C 69 % 1016,6 hPa 0,0 l/m 3,3 km/h (1 Bft) E 0,30 h 0,584 mm 542 W/m 19,6 C 25,8 C 8,2 km/h (2 Bft)
03/06/2017 14:00 25,4 C 70 % 1016,4 hPa 0,0 l/m 2,0 km/h (1 Bft) E 0,33 h 0,381 mm 520 W/m 19,5 C 25,4 C 6,1 km/h (2 Bft)
03/06/2017 15:00 25,3 C 69 % 1015,8 hPa 0,0 l/m 3,3 km/h (1 Bft) E 0,45 h 0,356 mm 520 W/m 19,2 C 25,3 C 7,9 km/h (2 Bft)
03/06/2017 16:00 26,4 C 62 % 1015,4 hPa 0,0 l/m 3,4 km/h (1 Bft) S 0,95 h 0,356 mm 630 W/m 18,5 C 26,4 C 7,6 km/h (2 Bft)
03/06/2017 17:00 26,0 C 62 % 1015,1 hPa 0,0 l/m 2,5 km/h (1 Bft) S 1,00 h 0,432 mm 507 W/m 18,1 C 26,0 C 7,0 km/h (2 Bft)
03/06/2017 18:00 24,7 C 67 % 1014,7 hPa 0,0 l/m 3,7 km/h (1 Bft) S 1,00 h 0,330 mm 332 W/m 18,2 C 24,7 C 7,8 km/h (2 Bft)
03/06/2017 19:00 23,5 C 73 % 1014,6 hPa 0,0 l/m 1,3 km/h (1 Bft) S-SO 0,57 h 0,229 mm 148 W/m 18,5 C 23,5 C 3,0 km/h (1 Bft)
03/06/2017 20:00 22,5 C 78 % 1014,2 hPa 0,0 l/m 0,0 km/h (0 Bft) N 0,00 h 0,102 mm 24 W/m 18,3 C 22,5 C 0,0 km/h (0 Bft)
03/06/2017 21:00 20,9 C 83 % 1014,2 hPa 0,0 l/m 0,0 km/h (0 Bft) N 0,00 h 0,025 mm 0 W/m 17,9 C 20,9 C 0,0 km/h (0 Bft)
03/06/2017 22:00 19,7 C 88 % 1014,6 hPa 0,0 l/m 0,0 km/h (0 Bft) N 0,00 h 0,000 mm 0 W/m 17,6 C 19,7 C 0,0 km/h (0 Bft)
03/06/2017 23:00 19,1 C 91 % 1014,3 hPa 0,0 l/m 0,0 km/h (0 Bft) N 0,00 h 0,000 mm 0 W/m 17,6 C 19,1 C 0,0 km/h (0 Bft)
04/06/2017 00:00 18,9 C 91 % 1014,0 hPa 0,0 l/m 0,0 km/h (0 Bft) N 0,00 h 0,000 mm 0 W/m 17,4 C 18,9 C 0,0 km/h (0 Bft)
04/06/2017 01:00 18,4 C 92 % 1013,6 hPa 0,0 l/m 0,0 km/h (0 Bft) SO 0,00 h 0,000 mm 0 W/m 17,0 C 18,4 C 0,5 km/h (0 Bft)
04/06/2017 02:00 18,0 C 91 % 1013,2 hPa 0,0 l/m 0,0 km/h (0 Bft) N 0,00 h 0,000 mm 0 W/m 16,5 C 18,0 C 0,3 km/h (0 Bft)
04/06/2017 03:00 17,5 C 92 % 1012,8 hPa 0,0 l/m 0,0 km/h (0 Bft) N 0,00 h 0,000 mm 0 W/m 16,2 C 17,5 C 0,0 km/h (0 Bft)
04/06/2017 04:00 17,1 C 93 % 1012,2 hPa 0,0 l/m 0,0 km/h (0 Bft) N 0,00 h 0,000 mm 0 W/m 15,9 C 17,1 C 0,1 km/h (0 Bft)
04/06/2017 05:00 16,8 C 93 % 1011,6 hPa 0,0 l/m 0,0 km/h (0 Bft) N 0,00 h 0,000 mm 6 W/m 15,7 C 16,8 C 0,0 km/h (0 Bft)
04/06/2017 06:00 16,5 C 93 % 1011,4 hPa 0,0 l/m 0,0 km/h (0 Bft) N 0,07 h 0,000 mm 15 W/m 15,4 C 16,5 C 0,0 km/h (0 Bft)
04/06/2017 07:00 16,9 C 93 % 1011,5 hPa 0,0 l/m 0,0 km/h (0 Bft) N 0,00 h 0,000 mm 27 W/m 15,8 C 16,9 C 0,0 km/h (0 Bft)
04/06/2017 08:00 19,3 C 85 % 1011,7 hPa 0,0 l/m 0,2 km/h (0 Bft) O-SO 0,62 h 0,025 mm 287 W/m 16,6 C 19,3 C 1,0 km/h (0 Bft)
04/06/2017 09:00 23,2 C 66 % 1011,8 hPa 0,0 l/m 0,5 km/h (0 Bft) E 1,00 h 0,178 mm 559 W/m 16,5 C 23,2 C 2,2 km/h (1 Bft)
04/06/2017 10:00 25,1 C 66 % 1011,9 hPa 0,0 l/m 2,4 km/h (1 Bft) E 1,00 h 0,356 mm 699 W/m 18,2 C 25,1 C 7,1 km/h (2 Bft)
04/06/2017 11:00 25,9 C 66 % 1012,0 hPa 0,0 l/m 2,7 km/h (1 Bft) E 1,00 h 0,457 mm 819 W/m 19,0 C 25,9 C 8,2 km/h (2 Bft)
04/06/2017 12:00 26,0 C 66 % 1012,3 hPa 0,0 l/m 2,2 km/h (1 Bft) E 1,00 h 0,533 mm 890 W/m 19,3 C 26,0 C 7,0 km/h (2 Bft)
04/06/2017 13:00 27,4 C 61 % 1012,2 hPa 0,0 l/m 1,6 km/h (1 Bft) E 1,00 h 0,584 mm 883 W/m 19,3 C 27,4 C 6,5 km/h (2 Bft)
04/06/2017 14:00 27,4 C 60 % 1012,0 hPa 0,0 l/m 1,8 km/h (1 Bft) E 1,00 h 0,559 mm 823 W/m 18,9 C 27,4 C 7,2 km/h (2 Bft)
04/06/2017 15:00 26,0 C 63 % 1012,3 hPa 0,0 l/m 3,0 km/h (1 Bft) E 1,00 h 0,533 mm 746 W/m 18,3 C 26,0 C 8,3 km/h (2 Bft)
04/06/2017 16:00 25,8 C 62 % 1012,1 hPa 0,0 l/m 1,6 km/h (1 Bft) E 1,00 h 0,483 mm 568 W/m 18,0 C 25,8 C 6,0 km/h (2 Bft)
04/06/2017 17:00 25,2 C 64 % 1011,9 hPa 0,0 l/m 1,5 km/h (1 Bft) E 0,98 h 0,381 mm 443 W/m 18,0 C 25,2 C 5,3 km/h (1 Bft)
04/06/2017 18:00 24,1 C 70 % 1012,0 hPa 0,0 l/m 0,2 km/h (0 Bft) E-SE 0,73 h 0,279 mm 277 W/m 18,2 C 24,1 C 1,6 km/h (1 Bft)
04/06/2017 19:00 22,8 C 74 % 1011,5 hPa 0,0 l/m 0,0 km/h (0 Bft) E 0,00 h 0,178 mm 112 W/m 18,0 C 22,8 C 0,4 km/h (0 Bft)
04/06/2017 20:00 21,6 C 78 % 1011,5 hPa 0,0 l/m 0,1 km/h (0 Bft) E-SE 0,00 h 0,076 mm 34 W/m 17,6 C 21,6 C 0,7 km/h (0 Bft)
04/06/2017 21:00 20,1 C 85 % 1011,7 hPa 0,0 l/m 0,0 km/h (0 Bft) E-SE 0,00 h 0,025 mm 5 W/m 17,5 C 20,1 C 0,9 km/h (0 Bft)
04/06/2017 22:00 19,3 C 89 % 1012,2 hPa 0,0 l/m 0,0 km/h (0 Bft) N 0,00 h 0,000 mm 0 W/m 17,5 C 19,3 C 0,1 km/h (0 Bft)
04/06/2017 23:00 19,2 C 91 % 1012,6 hPa 0,0 l/m 0,0 km/h (0 Bft) N 0,00 h 0,000 mm 0 W/m 17,6 C 19,2 C 0,0 km/h (0 Bft)
Min-Date _ 02/06/17 29/05/17 04/06/17 - 29/05/17 - - - - 30/05/17 02/06/17 29/05/17
_ Min-Heure 06:47 14:14 05:45 - 00:00 - - - - 03:11 06:47 00:00
Minimum _ 16,4 C 31 % 1011,4 hPa - 0,0 km/h (0 Bft) - - - - 9,5 C 16,4 C 0,0 km/h (0 Bft)
Max-Date _ 29/05/17 01/06/17 31/05/17 29/05/17 29/05/17 - 29/05/17 29/05/17 02/06/17 30/05/17 29/05/17 01/06/17
_ Max-Heure 13:56 02:32 12:30 00:00 14:14 - 06:06 14:00 13:14 14:08 13:56 13:27
Maximum _ 30,8 C 95 % 1021,3 hPa 0,0 l/m 12,9 km/h
S (3 Bft)
- 0,02 h 0,635 mm 1197 W/m 20,2 C 30,8 C 19,3 km/h
E (3 Bft)
Moyenne _ 21,7 C 74 % 1017,2 hPa #0,0 l/m 1,0 km/h (0 Bft) E #60:16 h #29,455 mm 383 W/m 16,5 C 21,7 C 2,6 km/h (1 Bft)
Roquefort les pins